sensor_id;sensor_type;location;lat;lon;timestamp;pressure;altitude;pressure_sealevel;temperature;humidity
26563;BME280;14217;50.986;5.826;2023-04-19T00:04:08;101891.16;;;19.43;41.42
26563;BME280;14217;50.986;5.826;2023-04-19T00:09:10;101887.69;;;19.41;41.37
26563;BME280;14217;50.986;5.826;2023-04-19T00:14:12;101879.72;;;19.41;41.50
26563;BME280;14217;50.986;5.826;2023-04-19T00:19:15;101888.50;;;19.43;41.72
26563;BME280;14217;50.986;5.826;2023-04-19T00:24:17;101884.13;;;19.42;41.35
26563;BME280;14217;50.986;5.826;2023-04-19T00:29:19;101882.50;;;19.38;41.54
26563;BME280;14217;50.986;5.826;2023-04-19T00:34:21;101879.81;;;19.38;41.47
26563;BME280;14217;50.986;5.826;2023-04-19T00:39:23;101890.34;;;19.41;41.56
26563;BME280;14217;50.986;5.826;2023-04-19T00:44:25;101878.84;;;19.40;41.48
26563;BME280;14217;50.986;5.826;2023-04-19T00:49:28;101885.91;;;19.41;41.73
26563;BME280;14217;50.986;5.826;2023-04-19T00:54:32;101881.50;;;19.40;41.61
26563;BME280;14217;50.986;5.826;2023-04-19T00:59:34;101875.25;;;19.41;41.34
26563;BME280;14217;50.986;5.826;2023-04-19T01:04:36;101874.41;;;19.41;41.50
26563;BME280;14217;50.986;5.826;2023-04-19T01:09:45;101878.94;;;19.37;41.81
26563;BME280;14217;50.986;5.826;2023-04-19T01:14:47;101877.03;;;19.42;41.52
26563;BME280;14217;50.986;5.826;2023-04-19T01:19:58;101876.22;;;19.39;41.62
26563;BME280;14217;50.986;5.826;2023-04-19T01:25:00;101868.22;;;19.40;41.80
26563;BME280;14217;50.986;5.826;2023-04-19T01:30:02;101861.06;;;19.42;41.59
26563;BME280;14217;50.986;5.826;2023-04-19T01:35:05;101860.22;;;19.42;41.43
26563;BME280;14217;50.986;5.826;2023-04-19T01:40:07;101866.44;;;19.41;41.63
26563;BME280;14217;50.986;5.826;2023-04-19T01:45:10;101870.03;;;19.40;41.78
26563;BME280;14217;50.986;5.826;2023-04-19T01:50:12;101867.38;;;19.40;41.80
26563;BME280;14217;50.986;5.826;2023-04-19T01:55:14;101867.28;;;19.41;41.56
26563;BME280;14217;50.986;5.826;2023-04-19T02:00:16;101864.63;;;19.41;41.56
26563;BME280;14217;50.986;5.826;2023-04-19T02:05:18;101864.72;;;19.40;41.48
26563;BME280;14217;50.986;5.826;2023-04-19T02:10:20;101849.56;;;19.42;41.74
26563;BME280;14217;50.986;5.826;2023-04-19T02:15:22;101859.28;;;19.43;41.59
26563;BME280;14217;50.986;5.826;2023-04-19T02:20:24;101847.00;;;19.39;41.72
26563;BME280;14217;50.986;5.826;2023-04-19T02:25:27;101842.56;;;19.39;41.69
26563;BME280;14217;50.986;5.826;2023-04-19T02:30:29;101837.19;;;19.41;41.47
26563;BME280;14217;50.986;5.826;2023-04-19T02:35:31;101837.22;;;19.39;41.37
26563;BME280;14217;50.986;5.826;2023-04-19T02:40:34;101838.84;;;19.45;41.52
26563;BME280;14217;50.986;5.826;2023-04-19T02:45:36;101845.09;;;19.44;41.39
26563;BME280;14217;50.986;5.826;2023-04-19T02:50:38;101848.69;;;19.41;41.55
26563;BME280;14217;50.986;5.826;2023-04-19T02:55:40;101845.97;;;19.43;41.59
26563;BME280;14217;50.986;5.826;2023-04-19T03:00:42;101843.44;;;19.40;41.73
26563;BME280;14217;50.986;5.826;2023-04-19T03:05:44;101847.94;;;19.38;41.53
26563;BME280;14217;50.986;5.826;2023-04-19T03:10:46;101847.00;;;19.39;41.67
26563;BME280;14217;50.986;5.826;2023-04-19T03:15:49;101843.53;;;19.37;41.81
26563;BME280;14217;50.986;5.826;2023-04-19T03:20:51;101847.94;;;19.38;41.85
26563;BME280;14217;50.986;5.826;2023-04-19T03:25:53;101843.44;;;19.40;41.83
26563;BME280;14217;50.986;5.826;2023-04-19T03:30:56;101845.94;;;19.44;41.49
26563;BME280;14217;50.986;5.826;2023-04-19T03:35:58;101840.88;;;19.37;41.86
26563;BME280;14217;50.986;5.826;2023-04-19T03:41:00;101843.47;;;19.38;41.81
26563;BME280;14217;50.986;5.826;2023-04-19T03:46:02;101830.09;;;19.41;41.57
26563;BME280;14217;50.986;5.826;2023-04-19T03:51:04;101833.72;;;19.39;41.67
26563;BME280;14217;50.986;5.826;2023-04-19T03:56:06;101833.56;;;19.43;41.82
26563;BME280;14217;50.986;5.826;2023-04-19T04:01:16;101831.06;;;19.39;41.64
26563;BME280;14217;50.986;5.826;2023-04-19T04:06:19;101829.19;;;19.42;41.88
26563;BME280;14217;50.986;5.826;2023-04-19T04:11:21;101830.97;;;19.42;41.81
26563;BME280;14217;50.986;5.826;2023-04-19T04:16:23;101831.06;;;19.39;41.81
26563;BME280;14217;50.986;5.826;2023-04-19T04:21:25;101835.41;;;19.41;41.60
26563;BME280;14217;50.986;5.826;2023-04-19T04:26:28;101831.91;;;19.39;41.80
26563;BME280;14217;50.986;5.826;2023-04-19T04:31:34;101835.47;;;19.40;41.77
26563;BME280;14217;50.986;5.826;2023-04-19T04:36:36;101832.84;;;19.38;42.01
26563;BME280;14217;50.986;5.826;2023-04-19T04:41:39;101843.47;;;19.38;41.96
26563;BME280;14217;50.986;5.826;2023-04-19T04:46:42;101841.69;;;19.39;41.95
26563;BME280;14217;50.986;5.826;2023-04-19T04:51:44;101840.88;;;19.37;41.96
26563;BME280;14217;50.986;5.826;2023-04-19T04:56:46;101846.91;;;19.42;41.87
26563;BME280;14217;50.986;5.826;2023-04-19T05:01:48;101847.16;;;19.34;41.77
26563;BME280;14217;50.986;5.826;2023-04-19T05:06:50;101849.78;;;19.36;41.77
26563;BME280;14217;50.986;5.826;2023-04-19T05:11:52;101842.66;;;19.36;42.01
26563;BME280;14217;50.986;5.826;2023-04-19T05:16:55;101845.28;;;19.38;41.82
26563;BME280;14217;50.986;5.826;2023-04-19T05:21:57;101846.09;;;19.40;41.77
26563;BME280;14217;50.986;5.826;2023-04-19T05:26:59;101847.03;;;19.37;41.98
26563;BME280;14217;50.986;5.826;2023-04-19T05:32:02;101844.34;;;19.39;41.73
26563;BME280;14217;50.986;5.826;2023-04-19T05:37:04;101845.28;;;19.38;41.97
26563;BME280;14217;50.986;5.826;2023-04-19T05:42:06;101849.63;;;19.40;41.86
26563;BME280;14217;50.986;5.826;2023-04-19T05:47:09;101840.00;;;19.36;41.74
26563;BME280;14217;50.986;5.826;2023-04-19T05:52:11;101837.31;;;19.38;41.81
26563;BME280;14217;50.986;5.826;2023-04-19T05:57:13;101839.03;;;19.39;42.09
26563;BME280;14217;50.986;5.826;2023-04-19T06:02:15;101834.66;;;19.38;42.06
26563;BME280;14217;50.986;5.826;2023-04-19T06:07:17;101838.16;;;19.38;41.89
26563;BME280;14217;50.986;5.826;2023-04-19T06:12:34;101847.94;;;19.38;41.80
26563;BME280;14217;50.986;5.826;2023-04-19T06:17:36;101837.34;;;19.36;42.06
26563;BME280;14217;50.986;5.826;2023-04-19T06:22:43;101841.88;;;19.33;42.09
26563;BME280;14217;50.986;5.826;2023-04-19T06:27:46;101847.13;;;19.36;42.16
26563;BME280;14217;50.986;5.826;2023-04-19T06:32:48;101848.00;;;19.35;42.41
26563;BME280;14217;50.986;5.826;2023-04-19T06:37:50;101853.09;;;19.42;42.85
26563;BME280;14217;50.986;5.826;2023-04-19T06:42:52;101853.97;;;19.43;42.80
26563;BME280;14217;50.986;5.826;2023-04-19T06:47:54;101853.97;;;19.43;42.54
26563;BME280;14217;50.986;5.826;2023-04-19T06:52:57;101851.50;;;19.37;42.67
26563;BME280;14217;50.986;5.826;2023-04-19T06:57:59;101853.34;;;19.35;42.88
26563;BME280;14217;50.986;5.826;2023-04-19T07:03:01;101853.25;;;19.38;42.93
26563;BME280;14217;50.986;5.826;2023-04-19T07:08:04;101853.97;;;19.43;42.92
26563;BME280;14217;50.986;5.826;2023-04-19T07:13:06;101852.75;;;19.53;42.58
26563;BME280;14217;50.986;5.826;2023-04-19T07:18:08;101848.75;;;19.66;42.21
26563;BME280;14217;50.986;5.826;2023-04-19T07:23:11;101851.00;;;19.80;41.47
26563;BME280;14217;50.986;5.826;2023-04-19T07:28:13;101848.56;;;19.99;41.14
26563;BME280;14217;50.986;5.826;2023-04-19T07:33:16;101846.06;;;19.95;41.17
26563;BME280;14217;50.986;5.826;2023-04-19T07:38:18;101849.44;;;20.00;41.01
26563;BME280;14217;50.986;5.826;2023-04-19T07:43:20;101848.97;;;20.14;40.67
26563;BME280;14217;50.986;5.826;2023-04-19T07:48:22;101846.91;;;20.22;40.36
26563;BME280;14217;50.986;5.826;2023-04-19T07:53:25;101843.56;;;20.15;40.58
26563;BME280;14217;50.986;5.826;2023-04-19T07:58:27;101840.31;;;19.82;40.96
26563;BME280;14217;50.986;5.826;2023-04-19T08:03:30;101846.78;;;19.73;41.14
26563;BME280;14217;50.986;5.826;2023-04-19T08:08:33;101843.44;;;19.66;41.34
26563;BME280;14217;50.986;5.826;2023-04-19T08:13:36;101835.38;;;19.69;41.38
26563;BME280;14217;50.986;5.826;2023-04-19T08:18:40;101830.03;;;19.96;40.62
26563;BME280;14217;50.986;5.826;2023-04-19T08:23:42;101826.88;;;20.12;40.83
26563;BME280;14217;50.986;5.826;2023-04-19T08:28:48;101830.94;;;20.22;40.63
26563;BME280;14217;50.986;5.826;2023-04-19T08:33:53;101820.50;;;20.16;40.61
26563;BME280;14217;50.986;5.826;2023-04-19T08:38:55;101823.22;;;20.14;40.50
26563;BME280;14217;50.986;5.826;2023-04-19T08:44:10;101824.28;;;19.83;41.37
26563;BME280;14217;50.986;5.826;2023-04-19T08:49:13;101825.72;;;19.67;41.75
26563;BME280;14217;50.986;5.826;2023-04-19T08:54:17;101824.16;;;19.60;42.08
26563;BME280;14217;50.986;5.826;2023-04-19T08:59:20;101824.28;;;19.57;42.01
26563;BME280;14217;50.986;5.826;2023-04-19T09:04:22;101811.84;;;19.57;41.83
26563;BME280;14217;50.986;5.826;2023-04-19T09:09:38;101804.94;;;19.52;42.04
26563;BME280;14217;50.986;5.826;2023-04-19T09:15:01;101810.09;;;19.56;41.86
26563;BME280;14217;50.986;5.826;2023-04-19T09:20:07;101801.09;;;19.60;41.79
26563;BME280;14217;50.986;5.826;2023-04-19T09:25:23;101797.75;;;19.82;40.93
26563;BME280;14217;50.986;5.826;2023-04-19T09:30:29;101791.06;;;19.68;41.50
26563;BME280;14217;50.986;5.826;2023-04-19T09:40:42;101785.25;;;19.57;41.39
26563;BME280;14217;50.986;5.826;2023-04-19T09:45:45;101775.44;;;19.59;41.09
26563;BME280;14217;50.986;5.826;2023-04-19T09:50:58;101777.34;;;19.56;40.94
26563;BME280;14217;50.986;5.826;2023-04-19T09:56:09;101779.09;;;19.57;40.97
26563;BME280;14217;50.986;5.826;2023-04-19T10:01:14;101767.47;;;19.59;40.91
26563;BME280;14217;50.986;5.826;2023-04-19T10:06:18;101771.66;;;19.66;40.68
26563;BME280;14217;50.986;5.826;2023-04-19T10:11:25;101762.09;;;19.61;40.22
26563;BME280;14217;50.986;5.826;2023-04-19T10:16:29;101763.66;;;19.66;40.21
26563;BME280;14217;50.986;5.826;2023-04-19T10:21:31;101756.25;;;19.78;39.44
26563;BME280;14217;50.986;5.826;2023-04-19T10:32:05;101749.94;;;20.05;38.85
26563;BME280;14217;50.986;5.826;2023-04-19T10:37:10;101749.97;;;20.04;38.62
26563;BME280;14217;50.986;5.826;2023-04-19T10:42:13;101747.22;;;19.82;38.76
26563;BME280;14217;50.986;5.826;2023-04-19T10:47:41;101741.69;;;19.61;38.69
26563;BME280;14217;50.986;5.826;2023-04-19T10:52:44;101750.31;;;19.68;38.42
26563;BME280;14217;50.986;5.826;2023-04-19T10:58:06;101746.91;;;19.64;38.46
26563;BME280;14217;50.986;5.826;2023-04-19T11:08:44;101736.38;;;19.61;38.78
26563;BME280;14217;50.986;5.826;2023-04-19T11:13:47;101736.81;;;19.49;38.26
26563;BME280;14217;50.986;5.826;2023-04-19T11:18:50;101722.28;;;19.59;38.41
26563;BME280;14217;50.986;5.826;2023-04-19T11:24:08;101714.50;;;19.53;38.08
26563;BME280;14217;50.986;5.826;2023-04-19T11:29:11;101706.63;;;19.77;37.58
26563;BME280;14217;50.986;5.826;2023-04-19T11:34:13;101701.03;;;19.84;36.95
26563;BME280;14217;50.986;5.826;2023-04-19T11:39:16;101707.84;;;19.92;36.66
26563;BME280;14217;50.986;5.826;2023-04-19T11:44:18;101709.47;;;19.96;36.40
26563;BME280;14217;50.986;5.826;2023-04-19T11:49:32;101691.84;;;19.93;36.45
26563;BME280;14217;50.986;5.826;2023-04-19T11:54:34;101686.56;;;19.92;36.46
26563;BME280;14217;50.986;5.826;2023-04-19T11:59:38;101683.09;;;19.89;36.40
26563;BME280;14217;50.986;5.826;2023-04-19T12:04:40;101699.78;;;19.95;36.39
26563;BME280;14217;50.986;5.826;2023-04-19T12:09:43;101694.56;;;19.92;36.55
26563;BME280;14217;50.986;5.826;2023-04-19T12:14:52;101680.34;;;19.93;36.23
26563;BME280;14217;50.986;5.826;2023-04-19T12:19:54;101682.19;;;19.90;36.39
26563;BME280;14217;50.986;5.826;2023-04-19T12:24:56;101675.88;;;19.93;35.83
26563;BME280;14217;50.986;5.826;2023-04-19T12:29:58;101662.53;;;19.95;35.98
26563;BME280;14217;50.986;5.826;2023-04-19T12:35:01;101667.91;;;19.93;35.89
26563;BME280;14217;50.986;5.826;2023-04-19T12:40:03;101659.13;;;19.91;35.94
26563;BME280;14217;50.986;5.826;2023-04-19T12:45:06;101657.31;;;19.92;35.87
26563;BME280;14217;50.986;5.826;2023-04-19T12:50:08;101658.16;;;19.92;35.56
26563;BME280;14217;50.986;5.826;2023-04-19T12:55:11;101644.88;;;19.92;35.69
26563;BME280;14217;50.986;5.826;2023-04-19T13:00:13;101648.34;;;19.94;35.62
26563;BME280;14217;50.986;5.826;2023-04-19T13:05:16;101641.34;;;19.92;35.21
26563;BME280;14217;50.986;5.826;2023-04-19T13:10:18;101626.97;;;19.97;34.99
26563;BME280;14217;50.986;5.826;2023-04-19T13:15:20;101632.28;;;19.97;34.78
26563;BME280;14217;50.986;5.826;2023-04-19T13:20:22;101631.66;;;19.90;34.86
26563;BME280;14217;50.986;5.826;2023-04-19T13:25:24;101626.25;;;19.92;34.90
26563;BME280;14217;50.986;5.826;2023-04-19T13:30:27;101613.84;;;19.93;34.77
26563;BME280;14217;50.986;5.826;2023-04-19T13:35:29;101623.69;;;19.90;34.96
26563;BME280;14217;50.986;5.826;2023-04-19T13:40:31;101606.81;;;19.90;35.06
26563;BME280;14217;50.986;5.826;2023-04-19T13:45:33;101605.09;;;19.89;34.73
26563;BME280;14217;50.986;5.826;2023-04-19T13:50:35;101598.13;;;19.86;34.39
26563;BME280;14217;50.986;5.826;2023-04-19T13:55:37;101597.19;;;19.87;34.25
26563;BME280;14217;50.986;5.826;2023-04-19T14:00:39;101594.69;;;19.83;34.45
26563;BME280;14217;50.986;5.826;2023-04-19T14:05:42;101579.69;;;19.82;34.70
26563;BME280;14217;50.986;5.826;2023-04-19T14:10:45;101585.88;;;19.82;34.46
26563;BME280;14217;50.986;5.826;2023-04-19T14:15:47;101563.72;;;19.82;34.89
26563;BME280;14217;50.986;5.826;2023-04-19T14:20:49;101568.16;;;19.81;34.81
26563;BME280;14217;50.986;5.826;2023-04-19T14:25:51;101561.94;;;19.82;34.61
26563;BME280;14217;50.986;5.826;2023-04-19T14:30:54;101553.19;;;19.79;34.80
26563;BME280;14217;50.986;5.826;2023-04-19T14:35:56;101553.00;;;19.83;34.66
26563;BME280;14217;50.986;5.826;2023-04-19T14:40:58;101548.50;;;19.85;34.51
26563;BME280;14217;50.986;5.826;2023-04-19T14:46:00;101553.91;;;19.84;34.48
26563;BME280;14217;50.986;5.826;2023-04-19T14:51:03;101545.97;;;19.82;34.70
26563;BME280;14217;50.986;5.826;2023-04-19T14:56:06;101532.72;;;19.81;34.79
26563;BME280;14217;50.986;5.826;2023-04-19T15:01:12;101544.22;;;19.81;34.42
26563;BME280;14217;50.986;5.826;2023-04-19T15:06:14;101522.94;;;19.81;34.79
26563;BME280;14217;50.986;5.826;2023-04-19T15:11:17;101529.16;;;19.82;34.77
26563;BME280;14217;50.986;5.826;2023-04-19T15:16:19;101522.94;;;19.81;34.64
26563;BME280;14217;50.986;5.826;2023-04-19T15:21:22;101524.75;;;19.81;34.60
26563;BME280;14217;50.986;5.826;2023-04-19T15:26:25;101525.69;;;19.80;34.53
26563;BME280;14217;50.986;5.826;2023-04-19T15:31:27;101514.13;;;19.81;34.83
26563;BME280;14217;50.986;5.826;2023-04-19T15:36:30;101510.66;;;19.79;34.71
26563;BME280;14217;50.986;5.826;2023-04-19T15:41:32;101502.72;;;19.77;34.52
26563;BME280;14217;50.986;5.826;2023-04-19T15:46:34;101508.00;;;19.79;34.49
26563;BME280;14217;50.986;5.826;2023-04-19T15:51:37;101509.88;;;19.75;34.57
26563;BME280;14217;50.986;5.826;2023-04-19T15:56:39;101502.81;;;19.76;34.54
26563;BME280;14217;50.986;5.826;2023-04-19T16:01:42;101500.94;;;19.78;34.60
26563;BME280;14217;50.986;5.826;2023-04-19T16:06:44;101499.34;;;19.74;34.52
26563;BME280;14217;50.986;5.826;2023-04-19T16:11:46;101499.34;;;19.74;34.77
26563;BME280;14217;50.986;5.826;2023-04-19T16:16:49;101500.25;;;19.73;34.64
26563;BME280;14217;50.986;5.826;2023-04-19T16:21:51;101503.75;;;19.73;34.78
26563;BME280;14217;50.986;5.826;2023-04-19T16:26:53;101497.53;;;19.74;34.96
26563;BME280;14217;50.986;5.826;2023-04-19T16:31:55;101492.31;;;19.71;34.84
26563;BME280;14217;50.986;5.826;2023-04-19T16:36:57;101494.88;;;19.74;34.75
26563;BME280;14217;50.986;5.826;2023-04-19T16:42:00;101488.75;;;19.72;34.59
26563;BME280;14217;50.986;5.826;2023-04-19T16:47:02;101480.66;;;19.75;34.78
26563;BME280;14217;50.986;5.826;2023-04-19T16:52:04;101481.69;;;19.71;34.63
26563;BME280;14217;50.986;5.826;2023-04-19T16:57:06;101478.13;;;19.72;34.72
26563;BME280;14217;50.986;5.826;2023-04-19T17:02:09;101478.16;;;19.70;34.75
26563;BME280;14217;50.986;5.826;2023-04-19T17:07:12;101472.75;;;19.74;34.85
26563;BME280;14217;50.986;5.826;2023-04-19T17:12:14;101465.78;;;19.69;34.86
26563;BME280;14217;50.986;5.826;2023-04-19T17:17:17;101469.34;;;19.68;34.78
26563;BME280;14217;50.986;5.826;2023-04-19T17:22:20;101464.91;;;19.69;34.57
26563;BME280;14217;50.986;5.826;2023-04-19T17:27:22;101473.72;;;19.71;34.63
26563;BME280;14217;50.986;5.826;2023-04-19T17:32:24;101470.19;;;19.70;34.70
26563;BME280;14217;50.986;5.826;2023-04-19T17:37:27;101469.44;;;19.67;34.83
26563;BME280;14217;50.986;5.826;2023-04-19T17:42:29;101470.19;;;19.70;35.26
26563;BME280;14217;50.986;5.826;2023-04-19T17:47:31;101474.75;;;19.67;35.49
26563;BME280;14217;50.986;5.826;2023-04-19T17:52:34;101464.03;;;19.68;35.79
26563;BME280;14217;50.986;5.826;2023-04-19T17:57:39;101475.66;;;19.66;35.78
26563;BME280;14217;50.986;5.826;2023-04-19T18:02:41;101469.50;;;19.65;35.76
26563;BME280;14217;50.986;5.826;2023-04-19T18:07:44;101465.09;;;19.64;35.75
26563;BME280;14217;50.986;5.826;2023-04-19T18:12:47;101466.03;;;19.63;35.77
26563;BME280;14217;50.986;5.826;2023-04-19T18:17:49;101468.44;;;19.69;35.72
26563;BME280;14217;50.986;5.826;2023-04-19T18:22:51;101472.97;;;19.67;35.63
26563;BME280;14217;50.986;5.826;2023-04-19T18:27:54;101470.28;;;19.67;35.59
26563;BME280;14217;50.986;5.826;2023-04-19T18:32:56;101464.28;;;19.62;35.92
26563;BME280;14217;50.986;5.826;2023-04-19T18:37:59;101473.19;;;19.61;35.97
26563;BME280;14217;50.986;5.826;2023-04-19T18:43:02;101471.28;;;19.65;35.70
26563;BME280;14217;50.986;5.826;2023-04-19T18:48:04;101482.84;;;19.64;35.74
26563;BME280;14217;50.986;5.826;2023-04-19T18:53:06;101480.19;;;19.64;35.89
26563;BME280;14217;50.986;5.826;2023-04-19T18:58:08;101493.53;;;19.62;36.02
26563;BME280;14217;50.986;5.826;2023-04-19T19:03:10;101488.19;;;19.62;35.93
26563;BME280;14217;50.986;5.826;2023-04-19T19:08:32;101493.66;;;19.59;35.92
26563;BME280;14217;50.986;5.826;2023-04-19T19:13:34;101502.44;;;19.61;36.18
26563;BME280;14217;50.986;5.826;2023-04-19T19:18:36;101504.28;;;19.59;36.15
26563;BME280;14217;50.986;5.826;2023-04-19T19:23:39;101510.59;;;19.57;36.00
26563;BME280;14217;50.986;5.826;2023-04-19T19:28:43;101504.28;;;19.59;36.20
26563;BME280;14217;50.986;5.826;2023-04-19T19:33:45;101506.13;;;19.57;35.84
26563;BME280;14217;50.986;5.826;2023-04-19T19:39:08;101513.13;;;19.60;36.17
26563;BME280;14217;50.986;5.826;2023-04-19T19:44:11;101508.66;;;19.60;35.97
26563;BME280;14217;50.986;5.826;2023-04-19T19:49:13;101515.81;;;19.58;36.16
26563;BME280;14217;50.986;5.826;2023-04-19T19:54:16;101523.75;;;19.60;35.94
26563;BME280;14217;50.986;5.826;2023-04-19T19:59:18;101524.50;;;19.63;35.95
26563;BME280;14217;50.986;5.826;2023-04-19T20:04:21;101528.22;;;19.59;35.68
26563;BME280;14217;50.986;5.826;2023-04-19T20:09:23;101530.06;;;19.57;35.67
26563;BME280;14217;50.986;5.826;2023-04-19T20:14:28;101529.84;;;19.63;35.66
26563;BME280;14217;50.986;5.826;2023-04-19T20:19:30;101536.88;;;19.64;35.50
26563;BME280;14217;50.986;5.826;2023-04-19T20:24:32;101537.97;;;19.59;35.77
26563;BME280;14217;50.986;5.826;2023-04-19T20:29:35;101533.41;;;19.62;35.52
26563;BME280;14217;50.986;5.826;2023-04-19T20:34:36;101553.00;;;19.60;35.86
26563;BME280;14217;50.986;5.826;2023-04-19T20:39:40;101540.56;;;19.60;35.44
26563;BME280;14217;50.986;5.826;2023-04-19T20:44:42;101541.47;;;19.61;35.47
26563;BME280;14217;50.986;5.826;2023-04-19T20:49:44;101539.75;;;19.58;35.81
26563;BME280;14217;50.986;5.826;2023-04-19T20:54:46;101543.13;;;19.63;35.83
26563;BME280;14217;50.986;5.826;2023-04-19T20:59:48;101543.81;;;19.68;36.55
26563;BME280;14217;50.986;5.826;2023-04-19T21:04:50;101541.69;;;19.55;36.99
26563;BME280;14217;50.986;5.826;2023-04-19T21:09:52;101543.59;;;19.51;37.19
26563;BME280;14217;50.986;5.826;2023-04-19T21:14:54;101543.81;;;19.45;37.02
26563;BME280;14217;50.986;5.826;2023-04-19T21:19:56;101539.88;;;19.32;36.37
26563;BME280;14217;50.986;5.826;2023-04-19T21:24:58;101530.00;;;19.59;35.89
26563;BME280;14217;50.986;5.826;2023-04-19T21:30:01;101547.59;;;19.63;36.15
26563;BME280;14217;50.986;5.826;2023-04-19T21:35:03;101546.81;;;19.59;36.03
26563;BME280;14217;50.986;5.826;2023-04-19T21:40:06;101536.19;;;19.59;36.28
26563;BME280;14217;50.986;5.826;2023-04-19T21:45:09;101533.53;;;19.59;36.10
26563;BME280;14217;50.986;5.826;2023-04-19T21:50:11;101537.09;;;19.58;36.03
26563;BME280;14217;50.986;5.826;2023-04-19T21:55:13;101539.03;;;19.55;36.42
26563;BME280;14217;50.986;5.826;2023-04-19T22:00:15;101535.47;;;19.54;36.37
26563;BME280;14217;50.986;5.826;2023-04-19T22:05:17;101544.16;;;19.59;36.11
26563;BME280;14217;50.986;5.826;2023-04-19T22:10:19;101543.41;;;19.56;36.19
26563;BME280;14217;50.986;5.826;2023-04-19T22:15:21;101537.09;;;19.58;36.18
26563;BME280;14217;50.986;5.826;2023-04-19T22:20:26;101539.75;;;19.58;35.96
26563;BME280;14217;50.986;5.826;2023-04-19T22:25:28;101540.88;;;19.53;36.35
26563;BME280;14217;50.986;5.826;2023-04-19T22:30:30;101543.44;;;19.54;36.39
26563;BME280;14217;50.986;5.826;2023-04-19T22:35:32;101539.06;;;19.53;36.46
26563;BME280;14217;50.986;5.826;2023-04-19T22:40:34;101534.63;;;19.54;36.41
26563;BME280;14217;50.986;5.826;2023-04-19T22:45:36;101528.44;;;19.53;36.48
26563;BME280;14217;50.986;5.826;2023-04-19T22:50:38;101522.25;;;19.53;36.25
26563;BME280;14217;50.986;5.826;2023-04-19T22:55:42;101515.97;;;19.55;36.13
26563;BME280;14217;50.986;5.826;2023-04-19T23:00:44;101516.06;;;19.52;36.62
26563;BME280;14217;50.986;5.826;2023-04-19T23:05:46;101506.31;;;19.53;36.27
26563;BME280;14217;50.986;5.826;2023-04-19T23:10:48;101504.63;;;19.50;36.38
26563;BME280;14217;50.986;5.826;2023-04-19T23:15:51;101504.56;;;19.52;36.23
26563;BME280;14217;50.986;5.826;2023-04-19T23:20:55;101497.41;;;19.54;36.11
26563;BME280;14217;50.986;5.826;2023-04-19T23:25:58;101501.00;;;19.53;36.37
26563;BME280;14217;50.986;5.826;2023-04-19T23:31:00;101491.22;;;19.53;36.48
26563;BME280;14217;50.986;5.826;2023-04-19T23:36:02;101485.09;;;19.51;36.38
26563;BME280;14217;50.986;5.826;2023-04-19T23:41:04;101489.47;;;19.52;36.23
26563;BME280;14217;50.986;5.826;2023-04-19T23:46:06;101484.28;;;19.49;36.26
26563;BME280;14217;50.986;5.826;2023-04-19T23:51:08;101480.66;;;19.52;36.33
26563;BME280;14217;50.986;5.826;2023-04-19T23:56:10;101479.75;;;19.53;36.60
